Time;durP1;ratioP1;P1;durP2;ratioP2;P2;SDS_P1;SDS_P2;PMS_P1;PMS_P2;Temp;Humidity;BMP_temperature;BMP_pressure;BME280_temperature;BME280_humidity;BME280_pressure;Samples;Min_cycle;Max_cycle;Signal;HPM_P1;HPM_P2
2022/06/26 00:01:39;;;;;;;1.40;1.30;;;21.70;99.90;;;;;;5043146;28;20711;-68
2022/06/26 00:04:05;;;;;;;3.60;1.57;;;21.80;99.90;;;;;;5051060;28;20223;-68
2022/06/26 00:06:31;;;;;;;1.30;1.20;;;21.70;99.90;;;;;;5037231;28;20234;-68
2022/06/26 00:08:56;;;;;;;1.13;1.13;;;21.80;99.90;;;;;;5040349;28;20463;-67
2022/06/26 00:11:22;;;;;;;1.40;1.30;;;21.70;99.90;;;;;;5029871;28;20240;-69
2022/06/26 00:13:48;;;;;;;1.43;1.33;;;21.70;99.90;;;;;;5052540;28;20237;-68
2022/06/26 00:16:14;;;;;;;1.53;1.43;;;21.80;99.90;;;;;;5043655;28;20270;-68
2022/06/26 00:18:41;;;;;;;3.87;1.60;;;21.90;99.90;;;;;;5045502;28;20223;-68
2022/06/26 00:21:07;;;;;;;1.13;1.13;;;21.90;99.90;;;;;;5034908;28;20220;-69
2022/06/26 00:23:32;;;;;;;1.47;1.37;;;21.90;99.90;;;;;;5024952;28;20822;-66
2022/06/26 00:25:58;;;;;;;1.90;1.10;;;21.90;99.90;;;;;;5035476;28;20220;-68
2022/06/26 00:28:24;;;;;;;1.30;1.20;;;21.90;99.90;;;;;;5041696;28;20224;-66
2022/06/26 00:30:49;;;;;;;1.60;1.30;;;21.90;99.90;;;;;;5038758;28;20772;-68
2022/06/26 00:33:15;;;;;;;1.33;1.23;;;21.90;99.90;;;;;;5039521;28;20777;-68
2022/06/26 00:35:41;;;;;;;2.07;1.50;;;21.90;99.90;;;;;;5048515;28;20215;-68
2022/06/26 00:38:06;;;;;;;1.40;1.30;;;21.80;99.90;;;;;;5052453;28;20261;-68
2022/06/26 00:40:32;;;;;;;1.57;1.33;;;21.70;99.90;;;;;;5030909;28;20276;-68
2022/06/26 00:42:58;;;;;;;2.50;1.20;;;21.70;99.90;;;;;;5036287;28;20227;-68
2022/06/26 00:45:24;;;;;;;2.50;1.20;;;21.60;99.90;;;;;;5043287;28;20228;-69
2022/06/26 00:47:49;;;;;;;1.57;1.47;;;21.70;99.90;;;;;;5031316;28;20232;-68
2022/06/26 00:50:15;;;;;;;1.83;1.73;;;21.80;99.90;;;;;;5041278;28;20220;-67
2022/06/26 00:52:41;;;;;;;1.53;1.43;;;21.80;99.90;;;;;;5043921;28;20234;-69
2022/06/26 00:55:09;;;;;;;1.67;1.57;;;21.80;99.90;;;;;;5037037;28;20832;-68
2022/06/26 00:57:36;;;;;;;1.13;1.13;;;21.80;99.90;;;;;;5023237;28;20457;-67
2022/06/26 01:00:05;;;;;;;1.50;1.40;;;21.90;99.90;;;;;;5040808;28;20473;-68
2022/06/26 01:02:30;;;;;;;1.53;1.43;;;21.90;99.90;;;;;;5028723;28;20458;-68
2022/06/26 01:04:56;;;;;;;1.40;1.30;;;21.90;99.90;;;;;;5031490;28;21137;-68
2022/06/26 01:07:22;;;;;;;1.17;1.13;;;21.90;99.90;;;;;;5028594;28;20228;-69
2022/06/26 01:09:47;;;;;;;1.20;1.10;;;21.90;99.90;;;;;;5047952;28;20224;-68
2022/06/26 01:12:13;;;;;;;1.20;1.10;;;21.90;99.90;;;;;;5049294;28;20777;-68
2022/06/26 01:14:40;;;;;;;1.80;1.70;;;21.90;99.90;;;;;;5046957;28;20310;-68
2022/06/26 01:17:06;;;;;;;1.40;1.30;;;21.80;99.90;;;;;;5041175;28;20485;-69
2022/06/26 01:19:33;;;;;;;1.43;1.33;;;21.80;99.90;;;;;;5046941;28;20441;-68
2022/06/26 01:21:59;;;;;;;2.10;1.77;;;21.80;99.90;;;;;;5028743;28;20474;-67
2022/06/26 01:24:25;;;;;;;6.90;1.70;;;21.80;99.90;;;;;;5046933;28;20473;-67
2022/06/26 01:26:50;;;;;;;1.40;1.30;;;21.80;99.90;;;;;;5027610;28;20574;-66
2022/06/26 01:29:16;;;;;;;2.13;1.30;;;21.80;99.90;;;;;;5029236;28;20251;-67
2022/06/26 01:31:42;;;;;;;1.30;1.30;;;21.80;99.90;;;;;;5043010;28;20221;-68
2022/06/26 01:34:10;;;;;;;3.20;3.00;;;21.90;99.90;;;;;;5045826;28;20463;-66
2022/06/26 01:36:36;;;;;;;1.67;1.57;;;21.80;99.90;;;;;;5047323;28;20446;-68
2022/06/26 01:39:03;;;;;;;1.70;1.60;;;21.80;99.90;;;;;;5048243;28;20450;-69
2022/06/26 01:41:29;;;;;;;3.00;1.30;;;21.80;99.90;;;;;;5030023;28;20538;-68
2022/06/26 01:43:55;;;;;;;1.70;1.50;;;21.80;99.90;;;;;;5031833;28;21053;-67
2022/06/26 01:46:23;;;;;;;2.00;1.67;;;21.80;99.90;;;;;;5026918;28;20273;-67
2022/06/26 01:48:49;;;;;;;1.80;1.70;;;21.80;99.90;;;;;;5025824;28;20466;-68
2022/06/26 01:51:15;;;;;;;1.40;1.30;;;21.80;99.90;;;;;;5021301;28;20958;-68
2022/06/26 01:53:43;;;;;;;1.20;1.20;;;21.80;99.90;;;;;;5043367;28;20220;-68
2022/06/26 01:56:09;;;;;;;1.30;1.20;;;21.70;99.90;;;;;;5041415;28;20451;-68
2022/06/26 01:58:54;;;;;;;1.87;1.20;;;21.70;99.90;;;;;;5042843;28;20447;-66
2022/06/26 02:01:25;;;;;;;1.40;1.17;;;21.70;99.90;;;;;;5043656;28;20817;-66
2022/06/26 02:03:51;;;;;;;1.30;1.20;;;21.70;99.90;;;;;;5031418;28;20446;-68
2022/06/26 02:06:16;;;;;;;1.50;1.40;;;21.60;99.90;;;;;;5027091;28;20216;-69
2022/06/26 02:08:42;;;;;;;1.10;1.00;;;21.60;99.90;;;;;;5045689;28;20224;-68
2022/06/26 02:13:55;;;;;;;3.63;1.10;;;21.50;99.90;;;;;;5049463;28;20958;-68
2022/06/26 02:16:27;;;;;;;1.30;1.20;;;21.50;99.90;;;;;;5040069;28;20494;-69
2022/06/26 02:18:56;;;;;;;1.40;1.27;;;21.40;99.90;;;;;;5050513;28;20508;-69
2022/06/26 02:21:27;;;;;;;2.37;1.23;;;21.40;99.90;;;;;;5048493;28;20446;-69
2022/06/26 02:23:56;;;;;;;1.40;1.30;;;21.40;99.90;;;;;;5036733;28;20594;-68
2022/06/26 02:26:23;;;;;;;1.00;1.00;;;21.50;99.90;;;;;;5046898;28;20467;-69
2022/06/26 02:28:54;;;;;;;1.10;1.10;;;21.50;99.90;;;;;;5050624;28;20978;-67
2022/06/26 02:31:19;;;;;;;1.07;1.00;;;21.50;99.90;;;;;;5050766;28;20465;-68
2022/06/26 02:33:47;;;;;;;1.50;1.40;;;21.50;99.90;;;;;;5034166;28;20215;-68
2022/06/26 02:36:14;;;;;;;1.40;1.30;;;21.40;99.90;;;;;;5050854;28;20451;-69
2022/06/26 02:38:41;;;;;;;1.50;1.40;;;21.40;99.90;;;;;;5024902;28;20459;-68
2022/06/26 02:41:07;;;;;;;2.70;1.33;;;21.40;99.90;;;;;;5061950;28;20496;-68
2022/06/26 02:43:33;;;;;;;1.40;1.30;;;21.40;99.90;;;;;;5050047;28;21100;-67
2022/06/26 02:46:03;;;;;;;1.17;1.17;;;21.40;99.90;;;;;;5042648;28;20460;-68
2022/06/26 02:48:29;;;;;;;1.20;1.20;;;21.40;99.90;;;;;;5031144;28;20462;-68
2022/06/26 02:50:55;;;;;;;1.83;1.37;;;21.40;99.90;;;;;;5042133;28;20477;-68
2022/06/26 02:53:20;;;;;;;1.30;1.20;;;21.30;99.90;;;;;;5032063;28;20231;-68
2022/06/26 02:55:46;;;;;;;1.90;1.23;;;21.30;99.90;;;;;;5044006;28;20217;-68
2022/06/26 02:58:14;;;;;;;1.23;1.13;;;21.30;99.90;;;;;;5051599;28;20462;-68
2022/06/26 03:00:51;;;;;;;1.00;1.00;;;21.30;99.90;;;;;;5037635;28;20482;-68
2022/06/26 03:03:18;;;;;;;1.13;0.90;;;21.30;99.90;;;;;;5036573;28;20546;-68
2022/06/26 03:05:44;;;;;;;1.30;1.30;;;21.20;99.90;;;;;;5048776;28;20475;-67
2022/06/26 03:08:10;;;;;;;1.30;1.20;;;21.20;99.90;;;;;;5049378;28;21017;-68
2022/06/26 03:10:36;;;;;;;3.73;1.10;;;21.20;99.90;;;;;;5032814;28;20223;-69
2022/06/26 03:13:02;;;;;;;1.80;1.50;;;21.10;99.90;;;;;;5046025;28;20230;-67
2022/06/26 03:15:29;;;;;;;3.37;1.40;;;21.20;99.90;;;;;;5049221;28;20493;-69
2022/06/26 03:17:57;;;;;;;1.40;1.30;;;21.10;99.90;;;;;;5049016;28;20520;-68
2022/06/26 03:20:23;;;;;;;2.70;1.37;;;21.10;99.90;;;;;;5046392;28;20462;-69
2022/06/26 03:22:50;;;;;;;1.50;1.40;;;21.10;99.90;;;;;;5027205;28;20208;-68
2022/06/26 03:25:17;;;;;;;1.20;1.10;;;21.10;99.90;;;;;;5049339;28;20216;-68
2022/06/26 03:27:42;;;;;;;1.30;1.20;;;21.10;99.90;;;;;;5028760;28;20464;-68
2022/06/26 03:30:10;;;;;;;1.33;1.23;;;21.10;99.90;;;;;;5032990;28;20319;-68
2022/06/26 03:32:37;;;;;;;1.50;1.40;;;21.10;99.90;;;;;;5049184;28;20227;-69
2022/06/26 03:35:07;;;;;;;2.00;1.30;;;21.10;99.90;;;;;;5049664;28;20459;-67
2022/06/26 03:37:33;;;;;;;1.43;1.33;;;21.00;99.90;;;;;;5054436;28;20552;-66
2022/06/26 03:39:58;;;;;;;1.57;1.47;;;20.90;99.90;;;;;;5042084;28;20927;-68
2022/06/26 03:42:25;;;;;;;1.70;1.27;;;20.90;99.90;;;;;;5044657;28;20582;-69
2022/06/26 03:44:51;;;;;;;3.03;1.40;;;20.90;99.90;;;;;;5028150;28;20223;-67
2022/06/26 03:47:18;;;;;;;1.90;1.60;;;20.80;99.90;;;;;;5042454;28;20545;-68
2022/06/26 03:49:53;;;;;;;1.70;1.23;;;20.80;99.90;;;;;;5041782;28;20466;-68
2022/06/26 03:52:24;;;;;;;1.30;1.20;;;20.70;99.90;;;;;;5049108;28;20534;-68
2022/06/26 03:54:52;;;;;;;1.90;1.53;;;20.60;99.90;;;;;;5029818;28;20534;-68
2022/06/26 03:57:21;;;;;;;1.53;1.30;;;20.60;99.90;;;;;;5040744;28;20459;-68
2022/06/26 03:59:48;;;;;;;1.40;1.30;;;20.50;99.90;;;;;;5023746;28;21303;-69
2022/06/26 04:02:23;;;;;;;1.27;1.17;;;20.50;99.90;;;;;;5025868;28;20466;-69
2022/06/26 04:04:49;;;;;;;1.60;1.50;;;20.40;99.90;;;;;;5044075;28;20454;-69
2022/06/26 04:07:14;;;;;;;1.60;1.50;;;20.40;99.90;;;;;;5037941;28;20223;-68
2022/06/26 04:09:43;;;;;;;2.10;1.30;;;20.40;99.90;;;;;;5041212;28;20230;-68
2022/06/26 04:12:10;;;;;;;2.33;1.10;;;20.40;99.90;;;;;;5048751;28;20450;-68
2022/06/26 04:14:41;;;;;;;1.40;1.30;;;20.50;99.90;;;;;;5029451;28;20542;-68
2022/06/26 04:17:07;;;;;;;1.97;1.40;;;20.50;99.90;;;;;;5036342;28;20462;-68
2022/06/26 04:19:35;;;;;;;1.40;1.30;;;20.60;99.90;;;;;;5047412;28;20997;-67
2022/06/26 04:22:00;;;;;;;1.33;1.23;;;20.60;99.90;;;;;;5042906;28;20454;-68
2022/06/26 04:24:26;;;;;;;1.23;1.17;;;20.60;99.90;;;;;;5030260;28;20303;-69
2022/06/26 04:26:52;;;;;;;2.00;1.80;;;20.60;99.90;;;;;;5016622;28;20208;-68
2022/06/26 04:29:18;;;;;;;1.67;1.57;;;20.70;99.90;;;;;;5039687;28;20224;-68
2022/06/26 04:31:44;;;;;;;1.70;1.50;;;20.60;99.90;;;;;;5032133;28;20223;-69
2022/06/26 04:34:09;;;;;;;1.33;1.23;;;20.60;99.90;;;;;;5048617;28;20248;-67
2022/06/26 04:36:35;;;;;;;1.33;1.23;;;20.60;99.90;;;;;;5048066;28;20302;-68
2022/06/26 04:39:02;;;;;;;2.50;1.80;;;20.60;99.90;;;;;;5039619;28;20319;-66
2022/06/26 04:41:31;;;;;;;1.30;1.20;;;20.60;99.90;;;;;;5030884;28;20227;-68
2022/06/26 04:43:58;;;;;;;1.37;1.27;;;20.60;99.90;;;;;;5031639;28;20465;-67
2022/06/26 04:46:24;;;;;;;1.53;1.43;;;20.60;99.90;;;;;;5040432;28;20458;-69
2022/06/26 04:48:51;;;;;;;2.03;1.20;;;20.60;99.90;;;;;;5046462;28;20457;-68
2022/06/26 04:51:18;;;;;;;1.33;1.27;;;20.70;99.90;;;;;;5046835;28;20486;-68
2022/06/26 04:53:44;;;;;;;1.20;1.20;;;20.70;99.90;;;;;;5035143;28;20816;-68
2022/06/26 04:56:11;;;;;;;1.17;1.07;;;20.70;99.90;;;;;;5044194;28;20216;-67
2022/06/26 04:58:53;;;;;;;1.87;1.70;;;20.70;99.90;;;;;;5023885;28;20544;-68
2022/06/26 05:01:22;;;;;;;1.30;1.30;;;20.70;99.90;;;;;;5033399;28;20647;-68
2022/06/26 05:04:08;;;;;;;1.60;1.50;;;20.70;99.90;;;;;;5043800;28;20459;-68
2022/06/26 05:06:43;;;;;;;4.77;1.40;;;20.70;99.90;;;;;;5032216;28;21066;-68
2022/06/26 05:09:14;;;;;;;4.20;1.60;;;20.60;99.90;;;;;;5049838;28;20462;-68
2022/06/26 05:11:41;;;;;;;1.70;1.60;;;20.60;99.90;;;;;;5048540;28;20529;-67
2022/06/26 05:14:07;;;;;;;3.13;2.30;;;20.60;99.90;;;;;;5028215;28;20448;-68
2022/06/26 05:16:48;;;;;;;2.70;1.70;;;20.60;99.90;;;;;;5044824;28;20450;-67
2022/06/26 05:19:15;;;;;;;1.73;1.40;;;20.60;99.90;;;;;;5052034;28;20545;-66
2022/06/26 05:21:41;;;;;;;1.70;1.60;;;20.60;99.90;;;;;;5052985;28;20454;-68
2022/06/26 05:24:06;;;;;;;1.97;1.77;;;20.60;99.90;;;;;;5051484;28;20212;-68
2022/06/26 05:26:33;;;;;;;1.70;1.60;;;20.60;99.90;;;;;;5040610;28;20291;-67
2022/06/26 05:28:58;;;;;;;2.33;1.80;;;20.50;99.90;;;;;;5050287;28;20309;-68
2022/06/26 05:31:24;;;;;;;1.40;1.30;;;20.50;99.90;;;;;;5051280;28;20985;-69
2022/06/26 05:33:50;;;;;;;5.77;1.73;;;20.50;99.90;;;;;;5035009;28;20222;-68
2022/06/26 05:36:16;;;;;;;1.60;1.50;;;20.50;99.90;;;;;;5035713;28;20223;-69
2022/06/26 05:38:43;;;;;;;5.20;2.30;;;20.60;99.90;;;;;;5041125;28;20247;-68
2022/06/26 05:41:08;;;;;;;1.80;1.70;;;20.60;99.90;;;;;;5034260;28;20644;-68
2022/06/26 05:43:35;;;;;;;4.13;2.30;;;20.60;99.90;;;;;;5026771;28;20450;-68
2022/06/26 05:46:02;;;;;;;1.60;1.50;;;20.70;99.90;;;;;;5034064;28;20910;-68
2022/06/26 05:48:53;;;;;;;2.00;1.70;;;20.70;99.90;;;;;;5028996;28;20532;-67
2022/06/26 05:51:31;;;;;;;3.00;1.67;;;20.70;99.90;;;;;;5052189;28;20888;-69
2022/06/26 05:54:13;;;;;;;2.57;1.67;;;20.70;99.90;;;;;;5036597;28;20531;-68
2022/06/26 05:56:59;;;;;;;4.70;2.00;;;20.70;99.90;;;;;;5026925;28;20458;-67
2022/06/26 05:59:39;;;;;;;2.57;2.37;;;20.60;99.90;;;;;;5042917;28;20450;-68
2022/06/26 06:02:23;;;;;;;2.10;2.00;;;20.60;99.90;;;;;;5028514;28;20545;-69
2022/06/26 06:04:49;;;;;;;2.63;2.43;;;20.70;99.90;;;;;;5045829;28;20518;-68
2022/06/26 06:07:16;;;;;;;2.03;1.90;;;20.70;99.90;;;;;;5047616;28;20224;-69
2022/06/26 06:09:42;;;;;;;3.23;1.70;;;20.70;99.90;;;;;;5045917;28;20443;-69
2022/06/26 06:12:10;;;;;;;1.70;1.60;;;20.70;99.90;;;;;;5047487;28;20709;-69
2022/06/26 06:14:36;;;;;;;1.93;1.83;;;20.80;99.90;;;;;;5028051;28;20487;-69
2022/06/26 06:17:35;;;;;;;2.10;1.90;;;20.80;99.90;;;;;;5027381;28;20298;-69
2022/06/26 06:19:47;;;;;;;1.90;1.80;;;20.80;99.90;;;;;;5044171;28;20224;-69
2022/06/26 06:22:15;;;;;;;2.10;1.60;;;20.80;99.90;;;;;;5038803;28;20454;-69
2022/06/26 06:24:40;;;;;;;2.80;1.90;;;20.90;99.90;;;;;;5030303;28;20448;-68
2022/06/26 06:27:06;;;;;;;2.17;1.77;;;20.90;99.90;;;;;;5034786;28;20223;-69
2022/06/26 06:29:32;;;;;;;1.50;1.40;;;20.90;99.90;;;;;;5040592;28;20227;-68
2022/06/26 06:31:58;;;;;;;2.40;1.80;;;21.00;99.90;;;;;;5034127;28;20223;-69
2022/06/26 06:34:23;;;;;;;2.00;1.80;;;21.00;99.90;;;;;;5050466;28;20239;-69
2022/06/26 06:36:50;;;;;;;4.40;1.70;;;21.00;99.90;;;;;;5050568;28;20216;-69
2022/06/26 06:39:16;;;;;;;1.90;1.80;;;21.10;99.90;;;;;;5026298;28;20461;-69
2022/06/26 06:41:42;;;;;;;1.90;1.80;;;21.10;99.90;;;;;;5041018;28;22462;-68
2022/06/26 06:44:11;;;;;;;1.93;1.70;;;21.10;99.90;;;;;;5028969;28;20277;-69
2022/06/26 06:47:08;;;;;;;5.17;1.93;;;21.10;99.90;;;;;;5037761;28;20459;-69
2022/06/26 06:49:49;;;;;;;1.53;1.43;;;21.20;99.90;;;;;;5050250;28;20458;-68
2022/06/26 06:52:14;;;;;;;2.43;2.23;;;21.20;99.90;;;;;;5030610;28;20451;-68
2022/06/26 06:54:40;;;;;;;1.60;1.50;;;21.30;99.90;;;;;;5032665;28;20239;-68
2022/06/26 06:57:06;;;;;;;1.90;1.80;;;21.30;99.90;;;;;;5034037;28;20215;-68
2022/06/26 06:59:32;;;;;;;1.57;1.47;;;21.40;99.90;;;;;;5031836;28;20687;-68
2022/06/26 07:01:58;;;;;;;1.50;1.40;;;21.40;99.90;;;;;;5049177;28;20223;-69
2022/06/26 07:04:24;;;;;;;1.80;1.70;;;21.50;99.90;;;;;;5031402;28;20899;-69
2022/06/26 07:06:49;;;;;;;2.03;1.80;;;21.50;99.90;;;;;;5019484;28;20220;-68
2022/06/26 07:09:16;;;;;;;2.60;1.83;;;21.60;99.90;;;;;;5034234;28;20255;-68
2022/06/26 07:11:45;;;;;;;3.13;1.80;;;21.60;99.90;;;;;;5035486;28;20808;-68
2022/06/26 07:14:12;;;;;;;1.80;1.70;;;21.60;99.90;;;;;;5028547;28;20447;-67
2022/06/26 07:16:37;;;;;;;1.80;1.70;;;21.70;99.90;;;;;;5022992;28;20541;-68
2022/06/26 07:19:04;;;;;;;2.00;1.80;;;21.70;99.90;;;;;;5023865;28;20224;-67
2022/06/26 07:21:29;;;;;;;3.27;1.90;;;21.70;99.90;;;;;;5044264;28;20212;-68
2022/06/26 07:23:55;;;;;;;1.57;1.47;;;21.80;99.90;;;;;;5032675;28;20450;-68
2022/06/26 07:26:41;;;;;;;1.50;1.40;;;21.90;99.90;;;;;;5024972;28;20458;-69
2022/06/26 07:29:09;;;;;;;1.63;1.53;;;21.90;99.90;;;;;;5048777;28;20828;-68
2022/06/26 07:31:40;;;;;;;1.93;1.70;;;22.00;99.90;;;;;;5049145;28;20232;-68
2022/06/26 07:34:16;;;;;;;1.57;1.47;;;22.10;99.90;;;;;;5026697;28;20505;-68
2022/06/26 07:36:45;;;;;;;1.70;1.60;;;22.10;99.90;;;;;;5048504;28;20210;-69
2022/06/26 07:39:14;;;;;;;1.80;1.70;;;22.20;99.90;;;;;;5043835;28;20491;-68
2022/06/26 07:41:44;;;;;;;1.87;1.77;;;22.30;99.90;;;;;;5042183;28;20454;-68
2022/06/26 07:44:11;;;;;;;1.30;1.20;;;22.30;99.90;;;;;;5046629;28;20455;-68
2022/06/26 07:46:38;;;;;;;6.70;1.80;;;22.40;99.90;;;;;;5034555;28;20498;-68
2022/06/26 07:49:06;;;;;;;1.93;1.60;;;22.40;99.90;;;;;;5048719;28;21001;-68
2022/06/26 07:51:34;;;;;;;1.87;1.77;;;22.50;99.90;;;;;;5039302;28;21107;-67
2022/06/26 07:53:59;;;;;;;2.13;1.50;;;22.60;99.90;;;;;;5035852;28;20471;-69
2022/06/26 07:56:26;;;;;;;2.10;2.00;;;22.70;99.90;;;;;;5033605;28;20450;-69
2022/06/26 07:58:55;;;;;;;1.97;1.87;;;22.70;99.90;;;;;;5034062;28;20255;-68
2022/06/26 08:01:21;;;;;;;2.40;2.20;;;22.80;99.90;;;;;;5041961;28;20469;-68
2022/06/26 08:03:47;;;;;;;2.93;1.70;;;22.80;99.90;;;;;;5040984;28;20438;-66
2022/06/26 08:06:14;;;;;;;2.10;1.60;;;22.90;99.90;;;;;;5042738;28;20284;-68
2022/06/26 08:08:40;;;;;;;1.83;1.73;;;22.90;99.90;;;;;;5048609;28;20553;-68
2022/06/26 08:11:06;;;;;;;2.03;1.93;;;23.00;99.90;;;;;;5048159;28;20303;-66
2022/06/26 08:13:32;;;;;;;1.90;1.80;;;23.10;99.90;;;;;;5044664;28;20882;-67
2022/06/26 08:15:58;;;;;;;3.13;1.80;;;23.20;99.90;;;;;;5052200;28;20215;-69
2022/06/26 08:18:23;;;;;;;1.63;1.53;;;23.20;99.90;;;;;;5046881;28;20234;-69
2022/06/26 08:20:49;;;;;;;6.60;2.20;;;23.30;99.90;;;;;;5041891;28;20497;-69
2022/06/26 08:23:15;;;;;;;1.70;1.60;;;23.30;99.90;;;;;;5042639;28;20251;-68
2022/06/26 08:25:41;;;;;;;2.00;1.90;;;23.40;99.90;;;;;;5048369;28;20725;-68
2022/06/26 08:28:07;;;;;;;2.10;2.00;;;23.50;99.90;;;;;;5046334;28;20273;-68
2022/06/26 08:30:33;;;;;;;2.00;1.90;;;23.60;99.90;;;;;;5043667;28;20473;-68
2022/06/26 08:32:59;;;;;;;3.90;1.80;;;23.70;99.90;;;;;;5045811;28;21078;-68
2022/06/26 08:35:26;;;;;;;2.20;2.10;;;23.80;99.90;;;;;;5049205;28;20330;-69
2022/06/26 08:37:55;;;;;;;2.20;2.10;;;23.90;99.90;;;;;;5045943;28;20230;-68
2022/06/26 08:40:21;;;;;;;2.13;2.03;;;24.10;99.90;;;;;;5043313;28;20458;-68
2022/06/26 08:42:49;;;;;;;1.80;1.70;;;24.20;99.90;;;;;;5048150;28;20526;-68
2022/06/26 08:45:18;;;;;;;1.93;1.83;;;24.30;99.90;;;;;;5042489;28;20234;-69
2022/06/26 08:47:47;;;;;;;2.20;2.10;;;24.30;99.90;;;;;;5039727;28;20451;-69
2022/06/26 08:50:12;;;;;;;2.17;2.00;;;24.40;99.90;;;;;;5037907;28;20528;-69
2022/06/26 08:52:40;;;;;;;2.00;1.90;;;24.40;99.90;;;;;;5039732;28;20445;-68
2022/06/26 08:55:06;;;;;;;2.40;2.20;;;24.50;99.90;;;;;;5040400;28;20223;-68
2022/06/26 08:57:33;;;;;;;2.13;2.03;;;24.50;99.90;;;;;;5042334;28;21031;-68
2022/06/26 08:59:59;;;;;;;2.40;2.20;;;24.60;99.90;;;;;;5025934;28;20212;-68
2022/06/26 09:02:25;;;;;;;2.17;2.07;;;24.70;99.90;;;;;;5041297;28;20454;-68
2022/06/26 09:04:51;;;;;;;2.13;2.00;;;24.80;99.90;;;;;;5040931;28;20457;-69
2022/06/26 09:07:18;;;;;;;3.93;2.20;;;24.90;99.90;;;;;;5049262;28;20589;-68
2022/06/26 09:09:44;;;;;;;2.17;2.07;;;24.90;99.90;;;;;;5049206;28;20574;-68
2022/06/26 09:12:10;;;;;;;2.13;2.03;;;25.00;99.90;;;;;;5041719;28;20472;-67
2022/06/26 09:14:35;;;;;;;2.00;1.90;;;25.10;99.90;;;;;;5042183;28;20450;-67
2022/06/26 09:17:02;;;;;;;2.10;2.00;;;25.20;99.90;;;;;;5028051;28;20230;-68
2022/06/26 09:19:33;;;;;;;1.80;1.70;;;25.30;99.90;;;;;;5037333;28;20601;-68
2022/06/26 09:22:10;;;;;;;1.80;1.70;;;25.30;99.90;;;;;;5049422;28;20441;-67
2022/06/26 09:24:38;;;;;;;1.70;1.60;;;25.40;99.90;;;;;;5046480;28;20529;-67
2022/06/26 09:27:06;;;;;;;1.60;1.50;;;25.50;99.90;;;;;;5026959;28;20827;-68
2022/06/26 09:29:32;;;;;;;2.27;2.17;;;25.60;99.90;;;;;;5036781;28;20465;-68
2022/06/26 09:32:08;;;;;;;1.70;1.60;;;25.70;99.90;;;;;;5048542;28;20455;-68
2022/06/26 09:34:34;;;;;;;1.50;1.50;;;25.80;99.90;;;;;;5050968;28;20453;-68
2022/06/26 09:37:02;;;;;;;5.90;1.70;;;25.80;99.90;;;;;;5051921;28;20460;-66
2022/06/26 09:39:30;;;;;;;2.43;2.30;;;25.90;99.90;;;;;;5044760;28;20286;-67
2022/06/26 09:41:56;;;;;;;2.20;2.10;;;25.90;99.90;;;;;;5049032;28;20584;-67
2022/06/26 09:44:23;;;;;;;3.40;2.30;;;25.90;99.90;;;;;;5048077;28;20537;-68
2022/06/26 09:46:50;;;;;;;3.23;2.20;;;25.80;99.40;;;;;;5043024;28;20226;-67
2022/06/26 09:49:17;;;;;;;2.30;2.20;;;25.90;99.60;;;;;;5042916;28;20450;-67
2022/06/26 09:51:43;;;;;;;1.93;1.83;;;26.00;99.70;;;;;;5049471;28;21003;-66
2022/06/26 09:54:09;;;;;;;2.67;2.47;;;26.00;99.40;;;;;;5049488;28;20446;-69
2022/06/26 09:56:35;;;;;;;4.03;1.90;;;26.00;99.30;;;;;;5031027;28;20463;-68
2022/06/26 09:59:01;;;;;;;4.60;2.00;;;26.20;99.60;;;;;;5064359;28;20238;-69
2022/06/26 10:07:01;;;;;;;2.33;2.13;;;26.50;99.10;;;;;;5045540;28;20536;-68
2022/06/26 10:09:28;;;;;;;1.70;1.60;;;26.60;98.70;;;;;;5048925;28;20446;-66
2022/06/26 10:11:58;;;;;;;2.07;1.97;;;26.60;98.50;;;;;;5052541;28;20484;-66
2022/06/26 10:14:42;;;;;;;1.70;1.63;;;26.70;98.10;;;;;;5042863;28;20487;-66
2022/06/26 10:17:17;;;;;;;3.30;2.07;;;26.70;98.10;;;;;;5028369;28;20461;-66
2022/06/26 10:19:57;;;;;;;2.57;2.37;;;26.80;97.80;;;;;;5037636;28;20429;-67
2022/06/26 10:22:23;;;;;;;2.20;2.10;;;26.80;97.60;;;;;;5050023;28;20215;-66
2022/06/26 10:24:55;;;;;;;1.93;1.83;;;26.90;97.80;;;;;;5050284;28;20450;-65
2022/06/26 10:27:24;;;;;;;2.17;2.07;;;27.00;97.80;;;;;;5051587;28;20462;-66
2022/06/26 10:29:50;;;;;;;2.10;1.90;;;27.00;97.30;;;;;;5022960;28;20586;-65
2022/06/26 10:32:23;;;;;;;1.93;1.83;;;27.00;97.10;;;;;;5046625;28;20542;-68
2022/06/26 10:34:58;;;;;;;2.70;2.50;;;27.00;97.30;;;;;;5045744;28;20315;-68
2022/06/26 10:37:25;;;;;;;2.33;2.23;;;27.20;97.00;;;;;;5022135;28;20482;-67
2022/06/26 10:39:54;;;;;;;2.20;2.03;;;27.30;96.50;;;;;;5036730;28;20469;-68
2022/06/26 10:45:09;;;;;;;2.50;2.30;;;27.20;95.50;;;;;;5043214;28;20558;-69
2022/06/26 10:47:51;;;;;;;1.80;1.70;;;27.20;96.00;;;;;;5041131;28;20466;-68
2022/06/26 10:50:34;;;;;;;2.17;1.97;;;27.20;95.70;;;;;;5023686;28;20551;-68
2022/06/26 10:53:24;;;;;;;2.30;2.20;;;27.30;96.00;;;;;;5042278;28;20836;-68
2022/06/26 10:55:56;;;;;;;2.20;2.00;;;27.30;96.30;;;;;;5035744;28;20902;-69
2022/06/26 10:58:31;;;;;;;2.10;2.00;;;27.30;95.60;;;;;;5034344;28;20458;-68
2022/06/26 11:01:03;;;;;;;2.60;2.40;;;27.30;95.70;;;;;;5060475;28;20449;-69
2022/06/26 11:03:31;;;;;;;2.63;2.43;;;27.30;95.50;;;;;;5049422;28;20458;-68
2022/06/26 11:05:56;;;;;;;2.10;2.00;;;27.40;96.00;;;;;;5048170;28;20225;-69
2022/06/26 11:08:33;;;;;;;1.90;1.80;;;27.60;96.10;;;;;;5040954;28;20550;-69
2022/06/26 11:11:08;;;;;;;1.70;1.60;;;27.60;95.60;;;;;;5049308;28;20228;-67
2022/06/26 11:13:46;;;;;;;2.00;1.90;;;27.70;95.00;;;;;;5028343;28;20459;-68
2022/06/26 11:16:12;;;;;;;2.30;2.13;;;27.70;94.80;;;;;;5042269;28;20711;-68
2022/06/26 11:18:38;;;;;;;1.97;1.87;;;27.80;94.70;;;;;;5042556;28;20461;-69
2022/06/26 11:21:04;;;;;;;2.15;2.05;;;27.80;94.60;;;;;;5049801;28;20244;-69
2022/06/26 11:23:35;;;;;;;4.10;2.30;;;28.00;94.40;;;;;;5035220;28;20232;-69
2022/06/26 11:26:08;;;;;;;2.53;2.33;;;27.90;94.40;;;;;;5037888;28;20225;-69
2022/06/26 11:28:40;;;;;;;3.53;2.70;;;27.80;93.90;;;;;;5044030;28;20457;-68
2022/06/26 11:31:07;;;;;;;2.60;2.40;;;27.70;94.50;;;;;;5048847;28;20322;-67
2022/06/26 11:33:36;;;;;;;2.10;2.00;;;27.80;94.20;;;;;;5045205;28;20217;-71
2022/06/26 11:36:07;;;;;;;2.70;2.50;;;27.80;94.50;;;;;;5031002;28;20246;-69
2022/06/26 11:38:35;;;;;;;2.40;2.30;;;27.80;94.40;;;;;;5040385;28;20219;-67
2022/06/26 11:41:03;;;;;;;2.50;2.40;;;27.80;94.20;;;;;;5040221;28;20482;-68
2022/06/26 11:43:29;;;;;;;2.05;1.95;;;27.80;93.90;;;;;;5027397;28;21027;-68
2022/06/26 11:46:00;;;;;;;6.15;2.25;;;27.80;93.90;;;;;;5017966;28;20228;-69
2022/06/26 11:48:26;;;;;;;1.90;1.80;;;27.80;94.00;;;;;;5043169;28;20222;-69
2022/06/26 11:50:53;;;;;;;2.38;2.28;;;27.80;94.00;;;;;;5040494;28;20232;-69
2022/06/26 11:53:24;;;;;;;2.30;2.10;;;27.80;94.00;;;;;;5047936;28;20231;-68
2022/06/26 11:55:53;;;;;;;2.50;2.40;;;27.80;93.70;;;;;;5039460;28;20217;-68
2022/06/26 11:58:22;;;;;;;2.10;2.00;;;27.70;93.60;;;;;;5027993;28;20735;-69
2022/06/26 12:00:48;;;;;;;2.87;2.67;;;27.70;93.80;;;;;;5044688;28;20306;-68
2022/06/26 12:03:14;;;;;;;3.40;2.20;;;27.70;93.60;;;;;;5039801;28;20220;-68
2022/06/26 12:05:42;;;;;;;1.90;1.80;;;27.60;93.50;;;;;;5035429;28;20730;-69
2022/06/26 12:08:19;;;;;;;2.53;2.43;;;27.60;93.80;;;;;;5034476;28;20455;-68
2022/06/26 12:10:52;;;;;;;2.50;2.40;;;27.60;93.80;;;;;;5038905;28;20860;-69
2022/06/26 12:13:32;;;;;;;2.13;2.03;;;27.50;93.70;;;;;;5034359;28;20464;-65
2022/06/26 12:16:19;;;;;;;2.50;2.30;;;27.50;93.70;;;;;;5039052;28;20459;-67
2022/06/26 12:18:48;;;;;;;2.63;2.50;;;27.50;93.80;;;;;;5036476;28;20458;-66
2022/06/26 12:21:24;;;;;;;3.03;2.40;;;27.50;93.80;;;;;;5036425;28;20462;-68
2022/06/26 12:23:52;;;;;;;2.80;2.40;;;27.50;93.90;;;;;;5029316;28;20466;-67
2022/06/26 12:26:22;;;;;;;3.40;2.80;;;27.60;93.90;;;;;;5033549;28;20826;-67
2022/06/26 12:28:58;;;;;;;2.90;2.73;;;27.50;93.70;;;;;;5022853;28;20238;-68
2022/06/26 12:31:24;;;;;;;4.40;3.67;;;27.50;94.00;;;;;;5037795;28;20479;-68
2022/06/26 12:33:50;;;;;;;2.60;2.50;;;27.50;93.90;;;;;;5040236;28;20231;-67
2022/06/26 12:36:17;;;;;;;3.03;2.77;;;27.50;93.90;;;;;;5047846;28;20246;-66
2022/06/26 12:38:44;;;;;;;4.13;3.37;;;27.40;94.00;;;;;;5042231;28;20309;-68
2022/06/26 12:41:16;;;;;;;2.77;2.67;;;27.40;94.00;;;;;;5044279;28;20224;-68
2022/06/26 12:43:44;;;;;;;2.50;2.40;;;27.40;94.10;;;;;;5038498;28;20217;-68
2022/06/26 12:46:09;;;;;;;2.83;2.73;;;27.40;94.20;;;;;;5041220;28;20997;-67
2022/06/26 12:48:35;;;;;;;2.60;2.50;;;27.40;94.10;;;;;;5039761;28;20454;-67
2022/06/26 12:51:01;;;;;;;2.43;2.30;;;27.30;94.10;;;;;;5025179;28;20240;-68
2022/06/26 12:53:27;;;;;;;2.90;2.73;;;27.30;94.20;;;;;;5044892;28;20224;-67
2022/06/26 12:55:53;;;;;;;2.57;2.47;;;27.40;94.20;;;;;;5034002;28;20249;-68
2022/06/26 12:58:19;;;;;;;2.43;2.33;;;27.30;94.20;;;;;;5036731;28;20229;-68
2022/06/26 13:00:46;;;;;;;2.63;2.53;;;27.30;94.20;;;;;;5026711;28;20466;-67
2022/06/26 13:03:11;;;;;;;2.97;2.77;;;27.30;94.30;;;;;;5039398;28;20236;-67
2022/06/26 13:05:37;;;;;;;2.50;2.40;;;27.30;94.20;;;;;;5049681;28;20927;-68